createdAt,value
2023-05-03T00:00:00.165Z,14.93
2023-05-03T00:02:28.453Z,14.52
2023-05-03T00:04:57.189Z,14.57
2023-05-03T00:07:25.256Z,14.55
2023-05-03T00:09:53.528Z,14.85
2023-05-03T00:12:21.466Z,14.89
2023-05-03T00:14:49.351Z,14.52
2023-05-03T00:17:18.896Z,14.31
2023-05-03T00:19:46.769Z,14.86
2023-05-03T00:22:15.133Z,14.49
2023-05-03T00:24:42.907Z,14.46
2023-05-03T00:27:10.776Z,14.60
2023-05-03T00:29:38.906Z,14.66
2023-05-03T00:32:07.955Z,14.06
2023-05-03T00:34:37.320Z,14.63
2023-05-03T00:37:05.435Z,14.29
2023-05-03T00:39:33.956Z,14.95
2023-05-03T00:42:02.522Z,14.86
2023-05-03T00:44:30.605Z,14.95
2023-05-03T00:47:01.264Z,14.67
2023-05-03T00:49:29.474Z,14.64
2023-05-03T00:51:59.425Z,14.38
2023-05-03T00:54:29.095Z,14.35
2023-05-03T00:56:57.865Z,14.50
2023-05-03T00:59:26.443Z,14.31
2023-05-03T01:01:54.601Z,14.80
2023-05-03T01:04:23.916Z,14.36
2023-05-03T01:07:04.796Z,14.74
2023-05-03T01:09:39.607Z,14.37
2023-05-03T01:12:20.698Z,14.46
2023-05-03T01:14:59.695Z,14.49
2023-05-03T01:17:30.318Z,14.16
2023-05-03T01:20:08.283Z,14.50
2023-05-03T01:22:47.747Z,14.19
2023-05-03T01:25:17.356Z,14.24
2023-05-03T01:27:45.764Z,14.32
2023-05-03T01:30:14.516Z,14.57
2023-05-03T01:32:53.205Z,14.32
2023-05-03T01:35:28.035Z,14.26
2023-05-03T01:37:58.541Z,13.95
2023-05-03T01:40:29.384Z,13.57
2023-05-03T01:42:58.444Z,13.75
2023-05-03T01:45:26.814Z,13.57
2023-05-03T01:47:57.554Z,13.34
2023-05-03T01:50:25.690Z,13.26
2023-05-03T01:52:53.917Z,13.38
2023-05-03T01:55:21.855Z,13.03
2023-05-03T01:57:51.508Z,12.98
2023-05-03T02:00:20.139Z,13.05
2023-05-03T02:02:48.360Z,13.13
2023-05-03T02:05:16.602Z,13.22
2023-05-03T02:07:44.519Z,13.73
2023-05-03T02:10:15.027Z,13.68
2023-05-03T02:12:43.589Z,14.02
2023-05-03T02:15:14.434Z,13.70
2023-05-03T02:17:45.621Z,13.90
2023-05-03T02:20:14.813Z,13.75
2023-05-03T02:22:43.315Z,13.70
2023-05-03T02:25:11.847Z,13.70
2023-05-03T02:27:41.627Z,14.04
2023-05-03T02:30:10.369Z,13.80
2023-05-03T02:32:44.835Z,13.78
2023-05-03T02:35:13.600Z,13.94
2023-05-03T02:37:41.581Z,13.91
2023-05-03T02:40:13.553Z,13.70
2023-05-03T02:42:43.798Z,13.93
2023-05-03T02:45:12.795Z,13.90
2023-05-03T02:47:40.931Z,13.46
2023-05-03T02:50:11.357Z,13.36
2023-05-03T02:52:41.274Z,13.45
2023-05-03T02:55:10.919Z,13.20
2023-05-03T02:57:42.426Z,13.71
2023-05-03T03:00:15.831Z,13.54
2023-05-03T03:02:44.782Z,13.66
2023-05-03T03:05:14.649Z,13.69
2023-05-03T03:08:01.578Z,13.78
2023-05-03T03:10:42.316Z,14.15
2023-05-03T03:13:15.542Z,14.04
2023-05-03T03:15:47.432Z,13.70
2023-05-03T03:18:17.671Z,13.50
2023-05-03T03:20:53.471Z,13.41
2023-05-03T03:23:32.979Z,13.94
2023-05-03T03:26:01.350Z,14.01
2023-05-03T03:28:30.396Z,13.70
2023-05-03T03:31:02.164Z,14.00
2023-05-03T03:33:30.918Z,13.84
2023-05-03T03:36:10.390Z,13.80
2023-05-03T03:38:42.623Z,13.81
2023-05-03T03:41:13.063Z,13.62
2023-05-03T03:43:41.784Z,13.59
2023-05-03T03:46:16.351Z,13.33
2023-05-03T03:48:45.095Z,13.36
2023-05-03T03:51:14.889Z,13.70
2023-05-03T03:53:47.876Z,13.53
2023-05-03T03:56:16.969Z,13.93
2023-05-03T03:58:46.746Z,14.06
2023-05-03T04:01:25.172Z,14.02
2023-05-03T04:03:54.241Z,13.78
2023-05-03T04:06:24.006Z,13.24
2023-05-03T04:08:52.083Z,13.20
2023-05-03T04:11:21.542Z,13.24
2023-05-03T04:13:54.947Z,13.33
2023-05-03T04:16:23.369Z,13.64
2023-05-03T04:18:51.854Z,13.50
2023-05-03T04:21:19.981Z,14.00
2023-05-03T04:23:50.033Z,13.45
2023-05-03T04:26:31.104Z,13.47
2023-05-03T04:29:06.263Z,13.58
2023-05-03T04:31:35.423Z,13.88
2023-05-03T04:34:03.245Z,13.73
2023-05-03T04:36:31.379Z,13.55
2023-05-03T04:39:01.536Z,13.56
2023-05-03T04:41:29.362Z,13.55
2023-05-03T04:43:58.143Z,13.55
2023-05-03T04:46:26.046Z,13.37
2023-05-03T04:48:54.021Z,13.76
2023-05-03T04:51:21.977Z,13.72
2023-05-03T04:53:51.943Z,14.09
2023-05-03T04:56:26.318Z,13.54
2023-05-03T04:59:00.197Z,13.83
2023-05-03T05:01:28.570Z,13.74
2023-05-03T05:04:01.173Z,13.89
2023-05-03T05:06:35.759Z,14.47
2023-05-03T05:09:04.505Z,14.36
2023-05-03T05:11:34.549Z,14.12
2023-05-03T05:14:02.712Z,13.97
2023-05-03T05:16:30.708Z,14.07
2023-05-03T05:18:59.412Z,15.07
2023-05-03T05:21:28.705Z,14.88
2023-05-03T05:23:57.425Z,14.31
2023-05-03T05:26:26.095Z,15.08
2023-05-03T05:28:55.793Z,15.77
2023-05-03T05:31:24.476Z,15.21
2023-05-03T05:33:53.295Z,15.74
2023-05-03T05:36:21.566Z,15.81
2023-05-03T05:38:51.315Z,15.66
2023-05-03T05:41:19.767Z,15.70
2023-05-03T05:43:48.505Z,15.19
2023-05-03T05:46:21.093Z,15.98
2023-05-03T05:48:52.497Z,15.63
2023-05-03T05:51:21.272Z,14.98
2023-05-03T05:53:49.536Z,15.62
2023-05-03T05:56:19.265Z,15.73
2023-05-03T05:58:51.880Z,15.19
2023-05-03T06:01:21.172Z,15.46
2023-05-03T06:03:49.099Z,14.86
2023-05-03T06:06:17.015Z,15.40
2023-05-03T06:08:45.612Z,16.10
2023-05-03T06:11:14.457Z,15.85
2023-05-03T06:13:43.165Z,16.25
2023-05-03T06:16:12.940Z,15.52
2023-05-03T06:18:42.285Z,16.33
2023-05-03T06:21:11.479Z,16.98
2023-05-03T06:23:40.042Z,16.19
2023-05-03T06:26:09.679Z,16.38
2023-05-03T06:28:37.669Z,15.49
2023-05-03T06:31:06.266Z,15.58
2023-05-03T06:33:34.525Z,15.67
2023-05-03T06:36:03.868Z,16.58
2023-05-03T06:38:31.829Z,16.64
2023-05-03T06:40:59.743Z,16.21
2023-05-03T06:43:28.124Z,15.15
2023-05-03T06:46:04.322Z,15.61
2023-05-03T06:48:32.293Z,15.00
2023-05-03T06:51:00.237Z,15.70
2023-05-03T06:53:29.944Z,15.22
2023-05-03T06:55:57.990Z,15.13
2023-05-03T06:58:25.998Z,16.11
2023-05-03T07:00:54.517Z,15.59
2023-05-03T07:03:22.554Z,15.57
2023-05-03T07:05:50.502Z,16.55
2023-05-03T07:08:18.497Z,14.31
2023-05-03T07:10:47.755Z,15.06
2023-05-03T07:13:15.570Z,15.77
2023-05-03T07:15:44.130Z,16.73
2023-05-03T07:18:12.130Z,16.98
2023-05-03T07:20:40.258Z,16.84
2023-05-03T07:23:08.236Z,16.57
2023-05-03T07:25:36.259Z,17.97
2023-05-03T07:28:06.029Z,17.42
2023-05-03T07:30:33.931Z,17.14
2023-05-03T07:33:02.054Z,17.03
2023-05-03T07:35:30.569Z,18.20
2023-05-03T07:37:58.495Z,18.49
2023-05-03T07:40:28.703Z,19.54
2023-05-03T07:42:56.667Z,18.40
2023-05-03T07:45:27.601Z,18.59
2023-05-03T07:47:56.562Z,18.31
2023-05-03T07:50:24.823Z,18.39
2023-05-03T07:52:53.199Z,19.42
2023-05-03T07:55:21.572Z,20.04
2023-05-03T07:57:50.998Z,18.24
2023-05-03T08:00:19.271Z,18.32
2023-05-03T08:02:48.912Z,17.79
2023-05-03T08:05:18.085Z,17.51
2023-05-03T08:07:46.485Z,18.18
2023-05-03T08:10:14.583Z,16.69
2023-05-03T08:12:42.864Z,16.50
2023-05-03T08:15:11.498Z,16.96
2023-05-03T08:17:43.367Z,16.91
2023-05-03T08:20:13.841Z,17.10
2023-05-03T08:22:42.548Z,18.04
2023-05-03T08:25:12.150Z,17.23
2023-05-03T08:27:40.274Z,18.85
2023-05-03T08:30:09.506Z,18.02
2023-05-03T08:32:37.525Z,18.63
2023-05-03T08:35:07.507Z,19.91
2023-05-03T08:37:41.037Z,19.76
2023-05-03T08:40:11.926Z,19.69
2023-05-03T08:42:41.198Z,17.86
2023-05-03T08:45:11.531Z,19.34
2023-05-03T08:47:41.473Z,18.66
2023-05-03T08:50:10.977Z,18.40
2023-05-03T08:52:40.748Z,18.39
2023-05-03T08:55:09.300Z,18.37
2023-05-03T08:57:37.634Z,18.28
2023-05-03T09:00:10.893Z,17.59
2023-05-03T09:02:40.058Z,16.59
2023-05-03T09:05:33.156Z,17.53
2023-05-03T09:08:07.628Z,18.58
2023-05-03T09:10:39.422Z,18.96
2023-05-03T09:13:07.874Z,18.49
2023-05-03T09:15:36.624Z,19.14
2023-05-03T09:18:13.102Z,18.93
2023-05-03T09:20:42.825Z,18.31
2023-05-03T09:23:12.441Z,16.05
2023-05-03T09:25:45.771Z,17.42
2023-05-03T09:28:13.915Z,18.42
2023-05-03T09:30:42.205Z,19.14
2023-05-03T09:33:10.702Z,17.30
2023-05-03T09:35:39.315Z,18.44
2023-05-03T09:38:07.283Z,18.47
2023-05-03T09:40:47.595Z,17.98
2023-05-03T09:43:18.104Z,18.75
2023-05-03T09:45:47.248Z,19.03
2023-05-03T09:48:15.625Z,17.73
2023-05-03T09:50:44.592Z,18.14
2023-05-03T09:53:12.952Z,19.07
2023-05-03T09:55:42.442Z,19.26
2023-05-03T09:58:10.633Z,19.85
2023-05-03T10:00:39.417Z,20.17
2023-05-03T10:03:10.408Z,20.94
2023-05-03T10:05:47.341Z,18.36
2023-05-03T10:08:24.290Z,19.31
2023-05-03T10:10:54.462Z,20.19
2023-05-03T10:13:23.541Z,21.45
2023-05-03T10:15:56.716Z,20.59
2023-05-03T10:18:28.900Z,20.61
2023-05-03T10:21:02.687Z,18.93
2023-05-03T10:23:30.639Z,19.99
2023-05-03T10:26:18.170Z,20.83
2023-05-03T10:28:46.315Z,20.04
2023-05-03T10:31:46.977Z,19.95
2023-05-03T10:34:22.325Z,18.91
2023-05-03T10:36:52.615Z,19.83
2023-05-03T10:39:20.819Z,19.07
2023-05-03T10:42:01.488Z,19.39
2023-05-03T10:44:30.756Z,20.60
2023-05-03T10:46:58.795Z,21.12
2023-05-03T10:49:27.615Z,21.19
2023-05-03T10:51:56.092Z,20.72
2023-05-03T10:54:25.685Z,19.54
2023-05-03T10:56:57.056Z,20.83
2023-05-03T10:59:27.191Z,21.43
2023-05-03T11:01:55.759Z,21.09
2023-05-03T11:04:37.794Z,20.97
2023-05-03T11:07:05.835Z,20.79
2023-05-03T11:09:35.501Z,21.76
2023-05-03T11:12:08.821Z,21.57
2023-05-03T11:14:39.831Z,22.05
2023-05-03T11:17:08.271Z,19.33
2023-05-03T11:19:36.504Z,19.97
2023-05-03T11:22:05.152Z,20.34
2023-05-03T11:24:36.205Z,20.38
2023-05-03T11:27:08.472Z,19.35
2023-05-03T11:29:40.189Z,21.03
2023-05-03T11:32:10.560Z,20.44
2023-05-03T11:34:40.076Z,21.87
2023-05-03T11:37:10.922Z,22.28
2023-05-03T11:39:39.156Z,21.15
2023-05-03T11:42:07.267Z,20.43
2023-05-03T11:44:35.932Z,20.31
2023-05-03T11:47:05.813Z,19.42
2023-05-03T11:49:33.989Z,18.85
2023-05-03T11:52:02.142Z,20.39
2023-05-03T11:54:31.823Z,20.29
2023-05-03T11:57:01.009Z,22.03
2023-05-03T11:59:36.716Z,20.77
2023-05-03T12:02:07.586Z,20.84
2023-05-03T12:04:36.286Z,21.00
2023-05-03T12:07:05.413Z,21.81
2023-05-03T12:09:34.153Z,20.79
2023-05-03T12:12:05.786Z,20.52
2023-05-03T12:15:08.035Z,20.86
2023-05-03T12:17:39.830Z,21.72
2023-05-03T12:22:51.127Z,21.26
2023-05-03T12:25:21.065Z,20.78
2023-05-03T12:28:05.342Z,21.77
2023-05-03T12:33:28.172Z,21.61
2023-05-03T12:35:59.020Z,22.17
2023-05-03T12:38:30.606Z,21.83
2023-05-03T12:40:59.848Z,21.80
2023-05-03T12:43:27.963Z,21.63
2023-05-03T12:48:33.854Z,22.01
2023-05-03T12:51:18.516Z,20.92
2023-05-03T12:53:54.136Z,20.77
2023-05-03T12:56:26.395Z,21.83
2023-05-03T12:59:14.977Z,21.83
2023-05-03T13:04:44.934Z,21.18
2023-05-03T13:07:12.671Z,22.28
2023-05-03T13:12:30.820Z,22.77
2023-05-03T13:14:59.216Z,22.23
2023-05-03T13:17:27.285Z,21.77
2023-05-03T13:19:57.152Z,23.06
2023-05-03T13:22:25.319Z,24.10
2023-05-03T13:24:53.555Z,22.18
2023-05-03T13:27:22.066Z,22.45
2023-05-03T13:29:50.119Z,21.99
2023-05-03T13:32:18.376Z,22.24
2023-05-03T13:34:46.872Z,22.84
2023-05-03T13:37:18.649Z,23.31
2023-05-03T13:39:46.918Z,21.95
2023-05-03T13:42:14.975Z,21.63
2023-05-03T13:44:43.563Z,21.78
2023-05-03T13:47:12.328Z,21.94
2023-05-03T13:49:40.347Z,21.93
2023-05-03T13:52:08.366Z,23.06
2023-05-03T13:54:38.031Z,23.05
2023-05-03T13:57:06.159Z,23.21
2023-05-03T13:59:34.240Z,22.12
2023-05-03T14:02:02.683Z,22.27
2023-05-03T14:04:31.758Z,23.23
2023-05-03T14:07:03.206Z,24.33
2023-05-03T14:09:31.656Z,24.33
2023-05-03T14:12:01.301Z,22.96
2023-05-03T14:14:29.370Z,23.14
2023-05-03T14:16:57.409Z,22.45
2023-05-03T14:19:25.524Z,21.40
2023-05-03T14:21:59.577Z,21.71
2023-05-03T14:24:27.564Z,23.23
2023-05-03T14:26:55.442Z,22.14
2023-05-03T14:29:34.868Z,21.91
2023-05-03T14:32:03.110Z,22.23
2023-05-03T14:34:31.474Z,22.79
2023-05-03T14:37:00.150Z,22.08
2023-05-03T14:39:28.364Z,22.27
2023-05-03T14:41:56.715Z,22.02
2023-05-03T14:44:26.232Z,23.69
2023-05-03T14:46:54.234Z,22.14
2023-05-03T14:49:23.494Z,23.44
2023-05-03T14:51:52.168Z,23.43
2023-05-03T14:54:22.965Z,24.54
2023-05-03T14:56:50.933Z,24.97
2023-05-03T14:59:18.841Z,26.95
2023-05-03T15:01:48.326Z,27.23
2023-05-03T15:04:18.274Z,28.56
2023-05-03T15:06:46.485Z,29.44
2023-05-03T15:09:14.873Z,32.69
2023-05-03T15:11:43.038Z,29.87
2023-05-03T15:14:14.212Z,29.41
2023-05-03T15:16:42.211Z,28.63
2023-05-03T15:19:11.674Z,28.11
2023-05-03T15:21:47.142Z,29.05
2023-05-03T15:24:15.559Z,30.74
2023-05-03T15:26:43.661Z,32.07
2023-05-03T15:29:12.022Z,31.60
2023-05-03T15:31:40.046Z,29.25
2023-05-03T15:34:08.073Z,31.93
2023-05-03T15:36:37.986Z,32.32
2023-05-03T15:39:06.054Z,32.08
2023-05-03T15:41:34.807Z,31.79
2023-05-03T15:44:05.130Z,30.86
2023-05-03T15:46:33.433Z,28.51
2023-05-03T15:49:01.820Z,30.16
2023-05-03T15:51:29.829Z,29.42
2023-05-03T15:53:59.325Z,29.60
2023-05-03T15:56:28.532Z,29.81
2023-05-03T15:58:56.683Z,29.43
2023-05-03T16:01:25.210Z,30.07
2023-05-03T16:03:53.231Z,31.88
2023-05-03T16:06:21.301Z,30.44
2023-05-03T16:08:49.179Z,30.45
2023-05-03T16:11:20.289Z,33.77
2023-05-03T16:13:48.115Z,30.89
2023-05-03T16:16:16.186Z,29.33
2023-05-03T16:18:44.114Z,30.19
2023-05-03T16:21:12.528Z,29.98
2023-05-03T16:23:40.359Z,32.15
2023-05-03T16:26:15.027Z,31.03
2023-05-03T16:28:44.418Z,29.79
2023-05-03T16:31:12.383Z,31.59
2023-05-03T16:33:40.534Z,31.82
2023-05-03T16:36:09.801Z,31.93
2023-05-03T16:38:38.117Z,30.66
2023-05-03T16:41:07.814Z,30.87
2023-05-03T16:43:37.144Z,29.80
2023-05-03T16:46:07.152Z,29.18
2023-05-03T16:48:35.825Z,30.65
2023-05-03T16:51:04.005Z,30.74
2023-05-03T16:53:32.482Z,29.84
2023-05-03T16:56:01.237Z,27.22
2023-05-03T16:58:29.164Z,26.76
2023-05-03T17:00:57.885Z,26.68
2023-05-03T17:03:27.397Z,26.36
2023-05-03T17:05:55.902Z,25.73
2023-05-03T17:08:24.007Z,24.79
2023-05-03T17:10:52.117Z,24.14
2023-05-03T17:13:20.345Z,23.64
2023-05-03T17:15:48.332Z,23.12
2023-05-03T17:18:16.653Z,24.11
2023-05-03T17:20:46.344Z,23.61
2023-05-03T17:23:20.451Z,23.23
2023-05-03T17:25:48.606Z,22.60
2023-05-03T17:28:19.651Z,22.31
2023-05-03T17:30:47.825Z,22.75
2023-05-03T17:33:16.124Z,22.84
2023-05-03T17:35:45.669Z,22.37
2023-05-03T17:38:14.008Z,22.48
2023-05-03T17:40:43.447Z,21.92
2023-05-03T17:43:12.887Z,22.35
2023-05-03T17:45:41.648Z,21.65
2023-05-03T17:48:09.639Z,21.54
2023-05-03T17:50:37.878Z,22.12
2023-05-03T17:53:07.824Z,22.45
2023-05-03T17:55:38.407Z,21.93
2023-05-03T17:58:07.220Z,23.10
2023-05-03T18:00:35.188Z,22.40
2023-05-03T18:03:03.547Z,22.16
2023-05-03T18:05:36.789Z,22.20
2023-05-03T18:08:05.348Z,22.49
2023-05-03T18:10:36.107Z,21.65
2023-05-03T18:13:04.605Z,21.65
2023-05-03T18:15:32.645Z,21.77
2023-05-03T18:18:01.045Z,21.75
2023-05-03T18:20:29.130Z,21.44
2023-05-03T18:22:57.152Z,22.02
2023-05-03T18:25:25.405Z,21.32
2023-05-03T18:27:57.379Z,21.90
2023-05-03T18:30:28.131Z,21.73
2023-05-03T18:32:56.443Z,21.33
2023-05-03T18:35:24.770Z,21.06
2023-05-03T18:37:53.100Z,21.02
2023-05-03T18:40:21.150Z,20.85
2023-05-03T18:42:49.483Z,21.44
2023-05-03T18:45:19.667Z,21.30
2023-05-03T18:47:47.673Z,21.59
2023-05-03T18:50:16.268Z,21.27
2023-05-03T18:52:44.979Z,21.38
2023-05-03T18:55:12.878Z,21.49
2023-05-03T18:57:40.715Z,21.18
2023-05-03T19:00:10.059Z,21.25
2023-05-03T19:02:39.527Z,20.63
2023-05-03T19:05:10.845Z,20.92
2023-05-03T19:07:42.897Z,21.12
2023-05-03T19:10:11.306Z,20.89
2023-05-03T19:12:40.851Z,21.00
2023-05-03T19:15:10.980Z,21.45
2023-05-03T19:17:42.067Z,20.87
2023-05-03T19:20:21.136Z,20.91
2023-05-03T19:22:49.300Z,20.94
2023-05-03T19:25:18.197Z,21.12
2023-05-03T19:27:47.080Z,21.25
2023-05-03T19:30:19.306Z,20.95
2023-05-03T19:33:04.538Z,20.72
2023-05-03T19:35:47.750Z,20.92
2023-05-03T19:38:27.107Z,20.97
2023-05-03T19:41:08.059Z,20.76
2023-05-03T19:43:46.076Z,20.68
2023-05-03T19:46:28.955Z,20.39
2023-05-03T19:49:10.058Z,20.73
2023-05-03T19:51:45.629Z,20.62
2023-05-03T19:54:15.036Z,20.95
2023-05-03T19:56:47.094Z,21.26
2023-05-03T19:59:18.858Z,20.82
2023-05-03T20:01:47.072Z,20.55
2023-05-03T20:04:16.998Z,20.29
2023-05-03T20:06:45.127Z,20.03
2023-05-03T20:09:13.157Z,20.10
2023-05-03T20:11:41.448Z,20.22
2023-05-03T20:14:09.234Z,20.17
2023-05-03T20:16:39.082Z,19.93
2023-05-03T20:19:07.706Z,19.76
2023-05-03T20:21:39.083Z,19.70
2023-05-03T20:24:11.528Z,19.87
2023-05-03T20:26:39.727Z,19.62
2023-05-03T20:29:07.631Z,19.72
2023-05-03T20:31:35.544Z,20.01
2023-05-03T20:34:03.510Z,19.85
2023-05-03T20:36:31.423Z,19.35
2023-05-03T20:39:01.214Z,19.51
2023-05-03T20:41:32.608Z,19.44
2023-05-03T20:44:00.504Z,19.55
2023-05-03T20:46:29.243Z,19.23
2023-05-03T20:48:58.931Z,19.37
2023-05-03T20:51:28.356Z,19.68
2023-05-03T20:53:57.134Z,19.41
2023-05-03T20:56:26.538Z,19.44
2023-05-03T20:58:54.575Z,19.24
2023-05-03T21:01:24.284Z,19.56
2023-05-03T21:03:57.066Z,19.52
2023-05-03T21:06:24.983Z,19.32
2023-05-03T21:08:52.934Z,19.28
2023-05-03T21:11:20.975Z,18.87
2023-05-03T21:13:50.387Z,19.05
2023-05-03T21:16:18.262Z,19.10
2023-05-03T21:18:46.251Z,18.70
2023-05-03T21:21:14.115Z,18.85
2023-05-03T21:23:41.990Z,19.08
2023-05-03T21:26:09.927Z,19.00
2023-05-03T21:28:38.019Z,18.64
2023-05-03T21:31:13.469Z,18.41
2023-05-03T21:33:41.631Z,18.43
2023-05-03T21:36:10.047Z,18.62
2023-05-03T21:38:38.111Z,18.62
2023-05-03T21:41:07.142Z,18.33
2023-05-03T21:43:35.851Z,18.38
2023-05-03T21:46:04.055Z,17.95
2023-05-03T21:48:40.288Z,18.29
2023-05-03T21:51:09.890Z,18.12
2023-05-03T21:53:38.085Z,18.39
2023-05-03T21:56:06.740Z,18.58
2023-05-03T21:58:34.694Z,18.33
2023-05-03T22:01:03.616Z,18.44
2023-05-03T22:03:34.619Z,18.16
2023-05-03T22:06:04.469Z,17.96
2023-05-03T22:08:34.870Z,18.18
2023-05-03T22:11:06.968Z,17.97
2023-05-03T22:13:39.398Z,18.13
2023-05-03T22:16:13.106Z,18.13
2023-05-03T22:18:41.019Z,18.74
2023-05-03T22:21:10.555Z,17.63
2023-05-03T22:23:38.509Z,18.45
2023-05-03T22:26:06.580Z,17.71
2023-05-03T22:28:34.738Z,17.73
2023-05-03T22:31:03.395Z,17.66
2023-05-03T22:33:31.543Z,17.43
2023-05-03T22:35:59.564Z,17.25
2023-05-03T22:38:28.972Z,17.45
2023-05-03T22:40:57.677Z,17.52
2023-05-03T22:43:25.954Z,17.03
2023-05-03T22:45:54.169Z,16.62
2023-05-03T22:48:22.524Z,16.95
2023-05-03T22:50:50.507Z,17.35
2023-05-03T22:53:18.537Z,17.31
2023-05-03T22:55:56.575Z,17.12
2023-05-03T22:58:25.676Z,17.06
2023-05-03T23:00:53.915Z,17.19
2023-05-03T23:03:22.619Z,17.05
2023-05-03T23:05:53.313Z,17.12
2023-05-03T23:08:22.310Z,16.88
2023-05-03T23:10:54.154Z,17.07
2023-05-03T23:13:22.096Z,16.87
2023-05-03T23:15:50.786Z,17.12
2023-05-03T23:18:18.768Z,17.19
2023-05-03T23:20:47.587Z,17.23
2023-05-03T23:23:15.693Z,16.73
2023-05-03T23:25:43.976Z,17.13
2023-05-03T23:28:13.618Z,16.85
2023-05-03T23:30:44.302Z,16.85
2023-05-03T23:33:12.586Z,17.14
2023-05-03T23:35:41.724Z,17.00
2023-05-03T23:38:09.723Z,16.91
2023-05-03T23:40:37.705Z,16.96
2023-05-03T23:43:05.716Z,16.60
2023-05-03T23:45:35.183Z,16.46
2023-05-03T23:48:03.235Z,17.06
2023-05-03T23:50:32.075Z,16.85
2023-05-03T23:53:01.392Z,16.89
2023-05-03T23:55:29.397Z,16.51
2023-05-03T23:57:57.452Z,16.58
